Terminal Aerodrome Forecast
Issued by NWS

Home | Current Version | Previous Version | Graphics & Text | Print | Product List | Glossary On
Versions: 1 2 3 4 5 6 7 8 9 10 11 12 13 14 15 16 17 18 19 20 21 22 23 24 25 26 27
480
FTUS43 KLOT 211731
TAFMDW
TAF
KMDW 211731Z 2118/2224 02010KT P6SM FEW025 OVC250
     FM211900 03010KT P6SM FEW020 BKN180
     FM220800 06008KT P6SM FEW020 SCT060 BKN120
     FM221700 07013KT P6SM OVC060
     FM222200 08010KT P6SM OVC025=

USA.gov is the U.S. government's official web portal to all federal, state and local government web resources and services.